sensor_id;sensor_type;location;lat;lon;timestamp;P1;durP1;ratioP1;P2;durP2;ratioP2
47053;SDS011;32811;52.382;5.270;2023-08-06T00:00:54;8.13;;;7.30;;
47053;SDS011;32811;52.382;5.270;2023-08-06T00:03:21;12.80;;;6.95;;
47053;SDS011;32811;52.382;5.270;2023-08-06T00:05:48;8.95;;;8.05;;
47053;SDS011;32811;52.382;5.270;2023-08-06T00:08:14;8.68;;;6.95;;
47053;SDS011;32811;52.382;5.270;2023-08-06T00:10:41;10.60;;;7.90;;
47053;SDS011;32811;52.382;5.270;2023-08-06T00:13:08;8.57;;;7.68;;
47053;SDS011;32811;52.382;5.270;2023-08-06T00:15:34;8.23;;;7.45;;
47053;SDS011;32811;52.382;5.270;2023-08-06T00:18:01;7.00;;;6.30;;
47053;SDS011;32811;52.382;5.270;2023-08-06T00:20:28;7.55;;;6.53;;
47053;SDS011;32811;52.382;5.270;2023-08-06T00:22:54;16.48;;;6.07;;
47053;SDS011;32811;52.382;5.270;2023-08-06T00:25:21;6.88;;;6.18;;
47053;SDS011;32811;52.382;5.270;2023-08-06T00:27:47;7.43;;;5.68;;
47053;SDS011;32811;52.382;5.270;2023-08-06T00:30:14;10.68;;;6.55;;
47053;SDS011;32811;52.382;5.270;2023-08-06T00:32:41;6.95;;;6.30;;
47053;SDS011;32811;52.382;5.270;2023-08-06T00:35:07;6.72;;;6.03;;
47053;SDS011;32811;52.382;5.270;2023-08-06T00:37:34;8.60;;;6.10;;
47053;SDS011;32811;52.382;5.270;2023-08-06T00:40:01;6.93;;;6.22;;
47053;SDS011;32811;52.382;5.270;2023-08-06T00:42:27;9.40;;;6.05;;
47053;SDS011;32811;52.382;5.270;2023-08-06T00:44:54;8.23;;;5.70;;
47053;SDS011;32811;52.382;5.270;2023-08-06T00:47:21;10.07;;;5.82;;
47053;SDS011;32811;52.382;5.270;2023-08-06T00:49:47;9.68;;;5.88;;
47053;SDS011;32811;52.382;5.270;2023-08-06T00:52:14;8.23;;;5.28;;
47053;SDS011;32811;52.382;5.270;2023-08-06T00:54:41;6.38;;;5.35;;
47053;SDS011;32811;52.382;5.270;2023-08-06T00:57:08;5.32;;;4.82;;
47053;SDS011;32811;52.382;5.270;2023-08-06T00:59:35;5.80;;;5.22;;
47053;SDS011;32811;52.382;5.270;2023-08-06T01:02:03;6.38;;;5.43;;
47053;SDS011;32811;52.382;5.270;2023-08-06T01:04:30;8.63;;;4.70;;
47053;SDS011;32811;52.382;5.270;2023-08-06T01:12:06;5.43;;;4.95;;
47053;SDS011;32811;52.382;5.270;2023-08-06T01:14:50;5.85;;;4.97;;
47053;SDS011;32811;52.382;5.270;2023-08-06T01:17:35;6.07;;;4.90;;
47053;SDS011;32811;52.382;5.270;2023-08-06T01:20:02;4.57;;;4.18;;
47053;SDS011;32811;52.382;5.270;2023-08-06T01:22:30;5.65;;;5.00;;
47053;SDS011;32811;52.382;5.270;2023-08-06T01:24:56;5.40;;;3.45;;
47053;SDS011;32811;52.382;5.270;2023-08-06T01:27:30;6.88;;;3.92;;
47053;SDS011;32811;52.382;5.270;2023-08-06T01:30:10;5.47;;;3.33;;
47053;SDS011;32811;52.382;5.270;2023-08-06T01:35:10;7.05;;;4.25;;
47053;SDS011;32811;52.382;5.270;2023-08-06T01:37:38;3.92;;;3.63;;
47053;SDS011;32811;52.382;5.270;2023-08-06T01:40:15;6.10;;;3.67;;
47053;SDS011;32811;52.382;5.270;2023-08-06T01:42:41;3.85;;;3.38;;
47053;SDS011;32811;52.382;5.270;2023-08-06T01:45:08;3.83;;;3.53;;
47053;SDS011;32811;52.382;5.270;2023-08-06T01:47:36;2.97;;;2.78;;
47053;SDS011;32811;52.382;5.270;2023-08-06T01:50:02;7.07;;;4.22;;
47053;SDS011;32811;52.382;5.270;2023-08-06T01:52:29;4.43;;;4.03;;
47053;SDS011;32811;52.382;5.270;2023-08-06T01:54:56;4.65;;;4.25;;
47053;SDS011;32811;52.382;5.270;2023-08-06T01:57:23;5.28;;;4.78;;
47053;SDS011;32811;52.382;5.270;2023-08-06T01:59:50;11.85;;;5.45;;
47053;SDS011;32811;52.382;5.270;2023-08-06T02:02:16;5.38;;;4.88;;
47053;SDS011;32811;52.382;5.270;2023-08-06T02:04:43;8.85;;;5.30;;
47053;SDS011;32811;52.382;5.270;2023-08-06T02:07:10;6.53;;;5.40;;
47053;SDS011;32811;52.382;5.270;2023-08-06T02:09:36;6.25;;;5.32;;
47053;SDS011;32811;52.382;5.270;2023-08-06T02:12:03;8.27;;;6.05;;
47053;SDS011;32811;52.382;5.270;2023-08-06T02:14:30;7.30;;;6.70;;
47053;SDS011;32811;52.382;5.270;2023-08-06T02:16:56;7.10;;;6.45;;
47053;SDS011;32811;52.382;5.270;2023-08-06T02:19:23;7.70;;;7.00;;
47053;SDS011;32811;52.382;5.270;2023-08-06T02:21:50;7.07;;;6.38;;
47053;SDS011;32811;52.382;5.270;2023-08-06T02:24:17;8.02;;;7.32;;
47053;SDS011;32811;52.382;5.270;2023-08-06T02:26:43;7.43;;;6.55;;
47053;SDS011;32811;52.382;5.270;2023-08-06T02:29:10;8.75;;;7.53;;
47053;SDS011;32811;52.382;5.270;2023-08-06T02:31:36;8.77;;;7.82;;
47053;SDS011;32811;52.382;5.270;2023-08-06T02:34:03;9.93;;;8.82;;
47053;SDS011;32811;52.382;5.270;2023-08-06T02:36:30;8.77;;;7.97;;
47053;SDS011;32811;52.382;5.270;2023-08-06T02:38:56;8.40;;;7.68;;
47053;SDS011;32811;52.382;5.270;2023-08-06T02:41:23;8.80;;;7.95;;
47053;SDS011;32811;52.382;5.270;2023-08-06T02:43:49;8.80;;;7.85;;
47053;SDS011;32811;52.382;5.270;2023-08-06T02:46:16;9.25;;;8.30;;
47053;SDS011;32811;52.382;5.270;2023-08-06T02:48:43;10.00;;;9.00;;
47053;SDS011;32811;52.382;5.270;2023-08-06T02:51:09;10.90;;;9.27;;
47053;SDS011;32811;52.382;5.270;2023-08-06T02:53:36;10.18;;;9.23;;
47053;SDS011;32811;52.382;5.270;2023-08-06T02:56:02;11.27;;;9.05;;
47053;SDS011;32811;52.382;5.270;2023-08-06T02:58:29;15.07;;;9.35;;
47053;SDS011;32811;52.382;5.270;2023-08-06T03:01:02;11.07;;;9.13;;
47053;SDS011;32811;52.382;5.270;2023-08-06T03:03:31;12.65;;;9.45;;
47053;SDS011;32811;52.382;5.270;2023-08-06T03:05:58;14.45;;;7.97;;
47053;SDS011;32811;52.382;5.270;2023-08-06T03:08:25;13.32;;;10.10;;
47053;SDS011;32811;52.382;5.270;2023-08-06T03:10:52;11.88;;;9.10;;
47053;SDS011;32811;52.382;5.270;2023-08-06T03:13:19;13.05;;;8.75;;
47053;SDS011;32811;52.382;5.270;2023-08-06T03:15:55;9.20;;;8.35;;
47053;SDS011;32811;52.382;5.270;2023-08-06T03:18:23;13.07;;;8.75;;
47053;SDS011;32811;52.382;5.270;2023-08-06T03:20:50;10.20;;;9.30;;
47053;SDS011;32811;52.382;5.270;2023-08-06T03:23:16;9.25;;;8.45;;
47053;SDS011;32811;52.382;5.270;2023-08-06T03:25:44;11.98;;;9.38;;
47053;SDS011;32811;52.382;5.270;2023-08-06T03:28:11;9.48;;;8.07;;
47053;SDS011;32811;52.382;5.270;2023-08-06T03:30:37;9.90;;;8.98;;
47053;SDS011;32811;52.382;5.270;2023-08-06T03:33:04;10.77;;;8.98;;
47053;SDS011;32811;52.382;5.270;2023-08-06T03:35:31;9.88;;;8.98;;
47053;SDS011;32811;52.382;5.270;2023-08-06T03:37:57;13.00;;;9.27;;
47053;SDS011;32811;52.382;5.270;2023-08-06T03:40:24;9.13;;;8.23;;
47053;SDS011;32811;52.382;5.270;2023-08-06T03:42:50;8.60;;;7.88;;
47053;SDS011;32811;52.382;5.270;2023-08-06T03:45:17;8.88;;;8.07;;
47053;SDS011;32811;52.382;5.270;2023-08-06T03:47:44;9.27;;;7.72;;
47053;SDS011;32811;52.382;5.270;2023-08-06T03:50:10;9.05;;;8.25;;
47053;SDS011;32811;52.382;5.270;2023-08-06T03:52:37;10.05;;;9.15;;
47053;SDS011;32811;52.382;5.270;2023-08-06T03:55:04;9.52;;;8.48;;
47053;SDS011;32811;52.382;5.270;2023-08-06T03:57:30;9.35;;;8.45;;
47053;SDS011;32811;52.382;5.270;2023-08-06T03:59:57;12.25;;;8.23;;
47053;SDS011;32811;52.382;5.270;2023-08-06T04:02:24;9.85;;;8.18;;
47053;SDS011;32811;52.382;5.270;2023-08-06T04:04:50;12.10;;;9.43;;
47053;SDS011;32811;52.382;5.270;2023-08-06T04:07:19;9.68;;;8.65;;
47053;SDS011;32811;52.382;5.270;2023-08-06T04:09:53;9.35;;;8.55;;
47053;SDS011;32811;52.382;5.270;2023-08-06T04:14:48;9.23;;;8.32;;
47053;SDS011;32811;52.382;5.270;2023-08-06T04:17:16;10.40;;;8.18;;
47053;SDS011;32811;52.382;5.270;2023-08-06T04:19:43;12.18;;;8.93;;
47053;SDS011;32811;52.382;5.270;2023-08-06T04:22:10;10.25;;;8.90;;
47053;SDS011;32811;52.382;5.270;2023-08-06T04:24:36;10.15;;;9.13;;
47053;SDS011;32811;52.382;5.270;2023-08-06T04:27:03;14.15;;;9.15;;
47053;SDS011;32811;52.382;5.270;2023-08-06T04:29:30;10.25;;;9.25;;
47053;SDS011;32811;52.382;5.270;2023-08-06T04:31:57;11.70;;;9.27;;
47053;SDS011;32811;52.382;5.270;2023-08-06T04:34:24;17.75;;;8.73;;
47053;SDS011;32811;52.382;5.270;2023-08-06T04:36:50;15.60;;;9.38;;
47053;SDS011;32811;52.382;5.270;2023-08-06T04:39:17;9.95;;;9.05;;
47053;SDS011;32811;52.382;5.270;2023-08-06T04:41:44;11.27;;;8.73;;
47053;SDS011;32811;52.382;5.270;2023-08-06T04:44:10;12.00;;;10.13;;
47053;SDS011;32811;52.382;5.270;2023-08-06T04:46:37;14.75;;;10.13;;
47053;SDS011;32811;52.382;5.270;2023-08-06T04:49:03;10.85;;;9.85;;
47053;SDS011;32811;52.382;5.270;2023-08-06T04:51:30;10.90;;;9.48;;
47053;SDS011;32811;52.382;5.270;2023-08-06T04:53:57;10.52;;;9.43;;
47053;SDS011;32811;52.382;5.270;2023-08-06T04:56:24;11.05;;;9.50;;
47053;SDS011;32811;52.382;5.270;2023-08-06T04:58:50;11.77;;;9.25;;
47053;SDS011;32811;52.382;5.270;2023-08-06T05:01:17;10.90;;;9.90;;
47053;SDS011;32811;52.382;5.270;2023-08-06T05:03:44;11.60;;;10.50;;
47053;SDS011;32811;52.382;5.270;2023-08-06T05:06:11;12.95;;;10.48;;
47053;SDS011;32811;52.382;5.270;2023-08-06T05:08:37;25.88;;;11.00;;
47053;SDS011;32811;52.382;5.270;2023-08-06T05:11:04;11.52;;;8.95;;
47053;SDS011;32811;52.382;5.270;2023-08-06T05:13:30;9.65;;;8.77;;
47053;SDS011;32811;52.382;5.270;2023-08-06T05:15:57;13.88;;;9.15;;
47053;SDS011;32811;52.382;5.270;2023-08-06T05:18:24;11.40;;;9.52;;
47053;SDS011;32811;52.382;5.270;2023-08-06T05:20:51;12.40;;;9.60;;
47053;SDS011;32811;52.382;5.270;2023-08-06T05:23:17;14.23;;;9.90;;
47053;SDS011;32811;52.382;5.270;2023-08-06T05:25:44;8.85;;;8.15;;
47053;SDS011;32811;52.382;5.270;2023-08-06T05:28:11;10.40;;;9.38;;
47053;SDS011;32811;52.382;5.270;2023-08-06T05:30:40;9.88;;;8.82;;
47053;SDS011;32811;52.382;5.270;2023-08-06T05:33:07;9.48;;;8.52;;
47053;SDS011;32811;52.382;5.270;2023-08-06T05:35:34;11.98;;;8.73;;
47053;SDS011;32811;52.382;5.270;2023-08-06T05:38:01;8.65;;;7.95;;
47053;SDS011;32811;52.382;5.270;2023-08-06T05:40:28;9.30;;;8.40;;
47053;SDS011;32811;52.382;5.270;2023-08-06T05:42:54;9.48;;;8.40;;
47053;SDS011;32811;52.382;5.270;2023-08-06T05:45:21;9.48;;;8.57;;
47053;SDS011;32811;52.382;5.270;2023-08-06T05:47:48;10.60;;;8.98;;
47053;SDS011;32811;52.382;5.270;2023-08-06T05:50:15;9.68;;;8.75;;
47053;SDS011;32811;52.382;5.270;2023-08-06T05:52:43;13.80;;;8.88;;
47053;SDS011;32811;52.382;5.270;2023-08-06T05:55:09;9.55;;;8.48;;
47053;SDS011;32811;52.382;5.270;2023-08-06T05:57:36;8.52;;;7.72;;
47053;SDS011;32811;52.382;5.270;2023-08-06T06:00:03;8.77;;;8.05;;
47053;SDS011;32811;52.382;5.270;2023-08-06T06:02:32;8.48;;;7.68;;
47053;SDS011;32811;52.382;5.270;2023-08-06T06:04:59;8.15;;;7.40;;
47053;SDS011;32811;52.382;5.270;2023-08-06T06:07:25;9.57;;;8.35;;
47053;SDS011;32811;52.382;5.270;2023-08-06T06:09:52;11.82;;;8.35;;
47053;SDS011;32811;52.382;5.270;2023-08-06T06:12:18;10.63;;;8.25;;
47053;SDS011;32811;52.382;5.270;2023-08-06T06:14:45;9.25;;;8.45;;
47053;SDS011;32811;52.382;5.270;2023-08-06T06:17:12;8.75;;;7.95;;
47053;SDS011;32811;52.382;5.270;2023-08-06T06:19:38;9.88;;;7.55;;
47053;SDS011;32811;52.382;5.270;2023-08-06T06:22:05;13.32;;;8.43;;
47053;SDS011;32811;52.382;5.270;2023-08-06T06:24:32;8.75;;;8.02;;
47053;SDS011;32811;52.382;5.270;2023-08-06T06:26:58;10.05;;;8.30;;
47053;SDS011;32811;52.382;5.270;2023-08-06T06:29:25;12.93;;;8.68;;
47053;SDS011;32811;52.382;5.270;2023-08-06T06:31:52;10.20;;;8.27;;
47053;SDS011;32811;52.382;5.270;2023-08-06T06:34:19;10.45;;;8.23;;
47053;SDS011;32811;52.382;5.270;2023-08-06T06:36:46;9.93;;;8.30;;
47053;SDS011;32811;52.382;5.270;2023-08-06T06:39:12;8.27;;;7.57;;
47053;SDS011;32811;52.382;5.270;2023-08-06T06:41:39;9.50;;;8.55;;
47053;SDS011;32811;52.382;5.270;2023-08-06T06:44:05;11.13;;;8.20;;
47053;SDS011;32811;52.382;5.270;2023-08-06T06:46:32;10.65;;;8.65;;
47053;SDS011;32811;52.382;5.270;2023-08-06T06:48:59;12.95;;;8.50;;
47053;SDS011;32811;52.382;5.270;2023-08-06T06:51:25;12.05;;;9.23;;
47053;SDS011;32811;52.382;5.270;2023-08-06T06:53:52;15.50;;;10.10;;
47053;SDS011;32811;52.382;5.270;2023-08-06T06:56:18;10.43;;;9.38;;
47053;SDS011;32811;52.382;5.270;2023-08-06T06:58:45;12.45;;;9.65;;
47053;SDS011;32811;52.382;5.270;2023-08-06T07:01:12;12.77;;;9.95;;
47053;SDS011;32811;52.382;5.270;2023-08-06T07:03:38;13.10;;;10.85;;
47053;SDS011;32811;52.382;5.270;2023-08-06T07:06:05;13.30;;;10.48;;
47053;SDS011;32811;52.382;5.270;2023-08-06T07:08:33;10.77;;;9.63;;
47053;SDS011;32811;52.382;5.270;2023-08-06T07:11:02;12.63;;;11.43;;
47053;SDS011;32811;52.382;5.270;2023-08-06T07:13:30;14.57;;;13.18;;
47053;SDS011;32811;52.382;5.270;2023-08-06T07:15:57;14.85;;;13.30;;
47053;SDS011;32811;52.382;5.270;2023-08-06T07:18:24;13.90;;;12.50;;
47053;SDS011;32811;52.382;5.270;2023-08-06T07:20:52;14.63;;;11.82;;
47053;SDS011;32811;52.382;5.270;2023-08-06T07:23:20;12.85;;;11.43;;
47053;SDS011;32811;52.382;5.270;2023-08-06T07:25:48;11.90;;;10.55;;
47053;SDS011;32811;52.382;5.270;2023-08-06T07:28:15;12.65;;;10.40;;
47053;SDS011;32811;52.382;5.270;2023-08-06T07:30:42;12.50;;;11.30;;
47053;SDS011;32811;52.382;5.270;2023-08-06T07:33:10;11.00;;;9.88;;
47053;SDS011;32811;52.382;5.270;2023-08-06T07:35:37;11.48;;;10.32;;
47053;SDS011;32811;52.382;5.270;2023-08-06T07:38:04;11.65;;;10.55;;
47053;SDS011;32811;52.382;5.270;2023-08-06T07:40:31;12.27;;;9.48;;
47053;SDS011;32811;52.382;5.270;2023-08-06T07:42:57;13.27;;;9.30;;
47053;SDS011;32811;52.382;5.270;2023-08-06T07:45:24;13.70;;;9.85;;
47053;SDS011;32811;52.382;5.270;2023-08-06T07:47:50;10.57;;;9.52;;
47053;SDS011;32811;52.382;5.270;2023-08-06T07:50:17;9.63;;;8.73;;
47053;SDS011;32811;52.382;5.270;2023-08-06T07:52:44;10.15;;;9.10;;
47053;SDS011;32811;52.382;5.270;2023-08-06T07:55:10;8.90;;;8.07;;
47053;SDS011;32811;52.382;5.270;2023-08-06T07:57:37;8.65;;;7.72;;
47053;SDS011;32811;52.382;5.270;2023-08-06T08:00:04;9.45;;;7.95;;
47053;SDS011;32811;52.382;5.270;2023-08-06T08:02:31;10.70;;;8.43;;
47053;SDS011;32811;52.382;5.270;2023-08-06T08:04:58;11.18;;;8.82;;
47053;SDS011;32811;52.382;5.270;2023-08-06T08:07:24;10.60;;;9.18;;
47053;SDS011;32811;52.382;5.270;2023-08-06T08:09:53;8.63;;;7.82;;
47053;SDS011;32811;52.382;5.270;2023-08-06T08:12:20;7.22;;;6.60;;
47053;SDS011;32811;52.382;5.270;2023-08-06T08:14:47;6.03;;;5.53;;
47053;SDS011;32811;52.382;5.270;2023-08-06T08:17:13;6.00;;;4.10;;
47053;SDS011;32811;52.382;5.270;2023-08-06T08:19:40;4.43;;;3.78;;
47053;SDS011;32811;52.382;5.270;2023-08-06T08:22:07;5.38;;;3.90;;
47053;SDS011;32811;52.382;5.270;2023-08-06T08:24:34;7.43;;;3.17;;
47053;SDS011;32811;52.382;5.270;2023-08-06T08:27:01;5.78;;;2.42;;
47053;SDS011;32811;52.382;5.270;2023-08-06T08:29:27;4.25;;;3.20;;
47053;SDS011;32811;52.382;5.270;2023-08-06T08:31:54;4.18;;;3.40;;
47053;SDS011;32811;52.382;5.270;2023-08-06T08:34:21;3.95;;;3.35;;
47053;SDS011;32811;52.382;5.270;2023-08-06T08:36:47;2.95;;;2.65;;
47053;SDS011;32811;52.382;5.270;2023-08-06T08:39:16;4.28;;;3.50;;
47053;SDS011;32811;52.382;5.270;2023-08-06T08:41:42;4.88;;;2.78;;
47053;SDS011;32811;52.382;5.270;2023-08-06T08:44:09;5.28;;;3.65;;
47053;SDS011;32811;52.382;5.270;2023-08-06T08:46:40;4.70;;;4.28;;
47053;SDS011;32811;52.382;5.270;2023-08-06T08:49:07;3.60;;;2.92;;
47053;SDS011;32811;52.382;5.270;2023-08-06T08:51:34;3.60;;;2.40;;
47053;SDS011;32811;52.382;5.270;2023-08-06T08:54:02;2.75;;;1.70;;
47053;SDS011;32811;52.382;5.270;2023-08-06T08:56:30;0.80;;;0.73;;
47053;SDS011;32811;52.382;5.270;2023-08-06T08:58:57;1.35;;;1.00;;
47053;SDS011;32811;52.382;5.270;2023-08-06T09:01:25;1.95;;;1.27;;
47053;SDS011;32811;52.382;5.270;2023-08-06T09:03:55;1.75;;;1.20;;
47053;SDS011;32811;52.382;5.270;2023-08-06T09:06:23;6.30;;;1.30;;
47053;SDS011;32811;52.382;5.270;2023-08-06T09:08:59;4.18;;;1.45;;
47053;SDS011;32811;52.382;5.270;2023-08-06T09:11:29;4.35;;;1.55;;
47053;SDS011;32811;52.382;5.270;2023-08-06T09:14:08;3.70;;;1.73;;
47053;SDS011;32811;52.382;5.270;2023-08-06T09:16:35;5.32;;;2.58;;
47053;SDS011;32811;52.382;5.270;2023-08-06T09:19:12;8.00;;;1.90;;
47053;SDS011;32811;52.382;5.270;2023-08-06T09:21:41;18.00;;;1.80;;
47053;SDS011;32811;52.382;5.270;2023-08-06T09:24:09;8.77;;;2.05;;
47053;SDS011;32811;52.382;5.270;2023-08-06T09:26:37;3.05;;;1.30;;
47053;SDS011;32811;52.382;5.270;2023-08-06T09:29:05;4.85;;;1.30;;
47053;SDS011;32811;52.382;5.270;2023-08-06T09:31:41;3.38;;;1.15;;
47053;SDS011;32811;52.382;5.270;2023-08-06T09:34:16;4.95;;;1.20;;
47053;SDS011;32811;52.382;5.270;2023-08-06T09:36:46;4.90;;;1.92;;
47053;SDS011;32811;52.382;5.270;2023-08-06T09:39:17;7.75;;;1.58;;
47053;SDS011;32811;52.382;5.270;2023-08-06T09:41:45;4.15;;;1.85;;
47053;SDS011;32811;52.382;5.270;2023-08-06T09:44:16;2.42;;;1.45;;
47053;SDS011;32811;52.382;5.270;2023-08-06T09:46:48;5.43;;;1.27;;
47053;SDS011;32811;52.382;5.270;2023-08-06T09:49:20;2.65;;;1.52;;
47053;SDS011;32811;52.382;5.270;2023-08-06T09:52:11;6.15;;;2.03;;
47053;SDS011;32811;52.382;5.270;2023-08-06T09:54:39;4.10;;;1.75;;
47053;SDS011;32811;52.382;5.270;2023-08-06T09:57:06;2.42;;;1.60;;
47053;SDS011;32811;52.382;5.270;2023-08-06T09:59:33;2.38;;;1.95;;
47053;SDS011;32811;52.382;5.270;2023-08-06T10:02:02;7.00;;;1.95;;
47053;SDS011;32811;52.382;5.270;2023-08-06T10:04:30;3.88;;;1.88;;
47053;SDS011;32811;52.382;5.270;2023-08-06T10:07:06;4.35;;;1.92;;
47053;SDS011;32811;52.382;5.270;2023-08-06T10:09:33;3.22;;;2.10;;
47053;SDS011;32811;52.382;5.270;2023-08-06T10:12:00;6.00;;;2.10;;
47053;SDS011;32811;52.382;5.270;2023-08-06T10:14:32;5.57;;;2.17;;
47053;SDS011;32811;52.382;5.270;2023-08-06T10:17:01;3.42;;;1.85;;
47053;SDS011;32811;52.382;5.270;2023-08-06T10:19:29;2.72;;;1.60;;
47053;SDS011;32811;52.382;5.270;2023-08-06T10:22:13;3.50;;;1.85;;
47053;SDS011;32811;52.382;5.270;2023-08-06T10:24:50;2.10;;;1.67;;
47053;SDS011;32811;52.382;5.270;2023-08-06T10:32:47;2.03;;;1.60;;
47053;SDS011;32811;52.382;5.270;2023-08-06T10:35:37;8.88;;;2.13;;
47053;SDS011;32811;52.382;5.270;2023-08-06T10:38:14;4.38;;;2.10;;
47053;SDS011;32811;52.382;5.270;2023-08-06T10:43:31;6.00;;;2.35;;
47053;SDS011;32811;52.382;5.270;2023-08-06T10:46:00;2.97;;;2.22;;
47053;SDS011;32811;52.382;5.270;2023-08-06T10:48:37;5.63;;;2.40;;
47053;SDS011;32811;52.382;5.270;2023-08-06T10:51:09;3.20;;;2.33;;
47053;SDS011;32811;52.382;5.270;2023-08-06T10:53:37;4.75;;;2.03;;
47053;SDS011;32811;52.382;5.270;2023-08-06T10:56:14;9.93;;;2.90;;
47053;SDS011;32811;52.382;5.270;2023-08-06T10:58:44;6.13;;;3.38;;
47053;SDS011;32811;52.382;5.270;2023-08-06T11:01:12;5.10;;;2.95;;
47053;SDS011;32811;52.382;5.270;2023-08-06T11:03:39;8.23;;;3.55;;
47053;SDS011;32811;52.382;5.270;2023-08-06T11:06:06;4.35;;;2.75;;
47053;SDS011;32811;52.382;5.270;2023-08-06T11:08:37;6.40;;;2.97;;
47053;SDS011;32811;52.382;5.270;2023-08-06T11:11:08;4.85;;;3.10;;
47053;SDS011;32811;52.382;5.270;2023-08-06T11:13:37;4.10;;;2.60;;
47053;SDS011;32811;52.382;5.270;2023-08-06T11:16:07;6.13;;;2.55;;
47053;SDS011;32811;52.382;5.270;2023-08-06T11:18:34;5.22;;;2.30;;
47053;SDS011;32811;52.382;5.270;2023-08-06T11:21:01;4.78;;;2.42;;
47053;SDS011;32811;52.382;5.270;2023-08-06T11:23:28;7.07;;;2.35;;
47053;SDS011;32811;52.382;5.270;2023-08-06T11:25:56;5.78;;;2.90;;
47053;SDS011;32811;52.382;5.270;2023-08-06T11:28:23;7.75;;;1.90;;
47053;SDS011;32811;52.382;5.270;2023-08-06T11:30:51;3.95;;;2.30;;
47053;SDS011;32811;52.382;5.270;2023-08-06T11:33:21;6.35;;;2.72;;
47053;SDS011;32811;52.382;5.270;2023-08-06T11:35:57;4.75;;;1.75;;
47053;SDS011;32811;52.382;5.270;2023-08-06T11:38:25;3.03;;;1.75;;
47053;SDS011;32811;52.382;5.270;2023-08-06T11:40:54;4.57;;;2.17;;
47053;SDS011;32811;52.382;5.270;2023-08-06T11:43:21;2.63;;;1.65;;
47053;SDS011;32811;52.382;5.270;2023-08-06T11:45:49;4.20;;;1.88;;
47053;SDS011;32811;52.382;5.270;2023-08-06T11:48:17;4.60;;;1.70;;
47053;SDS011;32811;52.382;5.270;2023-08-06T11:50:44;7.85;;;2.58;;
47053;SDS011;32811;52.382;5.270;2023-08-06T11:53:14;7.75;;;2.78;;
47053;SDS011;32811;52.382;5.270;2023-08-06T11:55:41;5.47;;;2.15;;
47053;SDS011;32811;52.382;5.270;2023-08-06T11:58:09;4.95;;;2.25;;
47053;SDS011;32811;52.382;5.270;2023-08-06T12:00:41;5.40;;;2.42;;
47053;SDS011;32811;52.382;5.270;2023-08-06T12:03:09;5.03;;;1.77;;
47053;SDS011;32811;52.382;5.270;2023-08-06T12:05:37;5.55;;;1.85;;
47053;SDS011;32811;52.382;5.270;2023-08-06T12:08:05;5.63;;;2.25;;
47053;SDS011;32811;52.382;5.270;2023-08-06T12:10:32;4.38;;;2.72;;
47053;SDS011;32811;52.382;5.270;2023-08-06T12:12:59;6.93;;;3.20;;
47053;SDS011;32811;52.382;5.270;2023-08-06T12:15:26;4.50;;;2.13;;
47053;SDS011;32811;52.382;5.270;2023-08-06T12:17:53;4.70;;;2.00;;
47053;SDS011;32811;52.382;5.270;2023-08-06T12:20:20;2.63;;;2.20;;
47053;SDS011;32811;52.382;5.270;2023-08-06T12:22:46;7.10;;;2.03;;
47053;SDS011;32811;52.382;5.270;2023-08-06T12:25:13;3.63;;;1.95;;
47053;SDS011;32811;52.382;5.270;2023-08-06T12:27:43;4.88;;;1.63;;
47053;SDS011;32811;52.382;5.270;2023-08-06T12:30:11;1.92;;;1.40;;
47053;SDS011;32811;52.382;5.270;2023-08-06T12:32:39;5.13;;;1.70;;
47053;SDS011;32811;52.382;5.270;2023-08-06T12:35:06;3.67;;;1.58;;
47053;SDS011;32811;52.382;5.270;2023-08-06T12:37:34;6.05;;;2.08;;
47053;SDS011;32811;52.382;5.270;2023-08-06T12:40:01;4.75;;;1.58;;
47053;SDS011;32811;52.382;5.270;2023-08-06T12:42:50;3.15;;;1.38;;
47053;SDS011;32811;52.382;5.270;2023-08-06T12:45:17;2.63;;;1.27;;
47053;SDS011;32811;52.382;5.270;2023-08-06T12:47:47;4.78;;;1.50;;
47053;SDS011;32811;52.382;5.270;2023-08-06T12:50:16;5.63;;;2.03;;
47053;SDS011;32811;52.382;5.270;2023-08-06T12:52:43;4.45;;;2.10;;
47053;SDS011;32811;52.382;5.270;2023-08-06T12:55:10;2.95;;;2.10;;
47053;SDS011;32811;52.382;5.270;2023-08-06T12:57:37;3.67;;;1.90;;
47053;SDS011;32811;52.382;5.270;2023-08-06T13:00:22;3.92;;;2.30;;
47053;SDS011;32811;52.382;5.270;2023-08-06T13:02:49;3.80;;;1.77;;
47053;SDS011;32811;52.382;5.270;2023-08-06T13:05:15;2.58;;;1.67;;
47053;SDS011;32811;52.382;5.270;2023-08-06T13:07:42;3.30;;;2.58;;
47053;SDS011;32811;52.382;5.270;2023-08-06T13:10:09;4.40;;;1.58;;
47053;SDS011;32811;52.382;5.270;2023-08-06T13:12:35;4.82;;;1.85;;
47053;SDS011;32811;52.382;5.270;2023-08-06T13:15:02;3.40;;;2.08;;
47053;SDS011;32811;52.382;5.270;2023-08-06T13:17:29;3.33;;;2.00;;
47053;SDS011;32811;52.382;5.270;2023-08-06T13:19:56;3.25;;;1.60;;
47053;SDS011;32811;52.382;5.270;2023-08-06T13:22:22;3.53;;;1.45;;
47053;SDS011;32811;52.382;5.270;2023-08-06T13:24:49;6.47;;;1.33;;
47053;SDS011;32811;52.382;5.270;2023-08-06T13:27:15;5.35;;;1.73;;
47053;SDS011;32811;52.382;5.270;2023-08-06T13:29:42;2.58;;;1.52;;
47053;SDS011;32811;52.382;5.270;2023-08-06T13:32:08;4.78;;;1.50;;
47053;SDS011;32811;52.382;5.270;2023-08-06T13:34:35;3.25;;;1.45;;
47053;SDS011;32811;52.382;5.270;2023-08-06T13:37:02;2.47;;;1.30;;
47053;SDS011;32811;52.382;5.270;2023-08-06T13:39:28;4.25;;;1.20;;
47053;SDS011;32811;52.382;5.270;2023-08-06T13:41:55;1.55;;;0.90;;
47053;SDS011;32811;52.382;5.270;2023-08-06T13:44:22;7.43;;;1.20;;
47053;SDS011;32811;52.382;5.270;2023-08-06T13:46:48;5.35;;;1.50;;
47053;SDS011;32811;52.382;5.270;2023-08-06T13:49:15;3.97;;;1.35;;
47053;SDS011;32811;52.382;5.270;2023-08-06T13:51:41;2.33;;;1.25;;
47053;SDS011;32811;52.382;5.270;2023-08-06T13:54:08;4.45;;;1.10;;
47053;SDS011;32811;52.382;5.270;2023-08-06T13:56:34;4.97;;;1.30;;
47053;SDS011;32811;52.382;5.270;2023-08-06T13:59:02;3.80;;;1.30;;
47053;SDS011;32811;52.382;5.270;2023-08-06T14:01:28;4.07;;;1.10;;
47053;SDS011;32811;52.382;5.270;2023-08-06T14:04:14;3.88;;;1.10;;
47053;SDS011;32811;52.382;5.270;2023-08-06T14:06:41;2.83;;;1.55;;
47053;SDS011;32811;52.382;5.270;2023-08-06T14:09:08;4.25;;;1.10;;
47053;SDS011;32811;52.382;5.270;2023-08-06T14:11:34;1.45;;;0.82;;
47053;SDS011;32811;52.382;5.270;2023-08-06T14:14:01;2.67;;;1.00;;
47053;SDS011;32811;52.382;5.270;2023-08-06T14:16:29;3.60;;;0.70;;
47053;SDS011;32811;52.382;5.270;2023-08-06T14:18:56;1.75;;;0.90;;
47053;SDS011;32811;52.382;5.270;2023-08-06T14:21:23;1.65;;;0.68;;
47053;SDS011;32811;52.382;5.270;2023-08-06T14:23:49;2.28;;;0.70;;
47053;SDS011;32811;52.382;5.270;2023-08-06T14:26:16;1.60;;;0.80;;
47053;SDS011;32811;52.382;5.270;2023-08-06T14:28:43;2.70;;;0.60;;
47053;SDS011;32811;52.382;5.270;2023-08-06T14:31:10;1.27;;;0.45;;
47053;SDS011;32811;52.382;5.270;2023-08-06T14:33:38;1.63;;;0.60;;
47053;SDS011;32811;52.382;5.270;2023-08-06T14:36:04;1.85;;;0.95;;
47053;SDS011;32811;52.382;5.270;2023-08-06T14:38:31;6.82;;;1.15;;
47053;SDS011;32811;52.382;5.270;2023-08-06T14:41:05;6.90;;;0.70;;
47053;SDS011;32811;52.382;5.270;2023-08-06T14:43:32;5.70;;;2.05;;
47053;SDS011;32811;52.382;5.270;2023-08-06T14:45:59;9.90;;;0.90;;
47053;SDS011;32811;52.382;5.270;2023-08-06T14:48:26;2.55;;;0.63;;
47053;SDS011;32811;52.382;5.270;2023-08-06T14:50:53;3.85;;;1.00;;
47053;SDS011;32811;52.382;5.270;2023-08-06T14:53:20;2.83;;;0.50;;
47053;SDS011;32811;52.382;5.270;2023-08-06T14:55:47;4.35;;;0.70;;
47053;SDS011;32811;52.382;5.270;2023-08-06T14:58:13;2.13;;;0.47;;
47053;SDS011;32811;52.382;5.270;2023-08-06T15:00:40;3.40;;;0.60;;
47053;SDS011;32811;52.382;5.270;2023-08-06T15:03:07;1.15;;;0.40;;
47053;SDS011;32811;52.382;5.270;2023-08-06T15:05:33;3.35;;;0.35;;